Station History

Weather Underground - logo

Station Historical Data
Daily Summary for December 26, 2017 Units:  Both    English   Metric
« Previous Day
Next Day »
Daily Weekly Monthly Yearly Custom
  High: Low: Average:
Temperature: 62.8 °F /  17.1 °C 40.4 °F /  4.7 °C 48.7 °F /  9.3 °C
Dew Point: 43.5 °F /  6.4 °C 36.8 °F /  2.7 °C 39.5 °F /  4.2 °C
Humidity: 91 % 39 % 73 %
Wind Speed: 3.5 mph /  5.6 km/h - 0.3 mph /  0.5 km/h
Wind Gust: 3.5 mph /  5.6 km/h - -
Wind:- - SW
Pressure: 30.28 in /  1025.3 hPa 30.19 in /  1022.2 hPa -
Precipitation: 0.00 in /  0 mm    
Historical Graphs
 
 
Tabular Data for December 26, 2017
Time Temperature Dew Point Pressure Wind Wind Speed Wind Gust Humidity Rainfall Rate (Hourly)
00:01 43.2 °F /  6.2 °C 39.0 °F /  3.9 °C 30.20 in /  1022.6 hPa Calm     85 % 0.00 in /  0 mm
00:06 43.0 °F /  6.1 °C 38.8 °F /  3.8 °C 30.20 in /  1022.6 hPa Calm     85 % 0.00 in /  0 mm
00:07 42.9 °F /  6.1 °C 38.7 °F /  3.7 °C 30.20 in /  1022.6 hPa Calm     85 % 0.00 in /  0 mm
00:11 42.8 °F /  6 °C 38.9 °F /  3.8 °C 30.20 in /  1022.6 hPa Calm     86 % 0.00 in /  0 mm
00:12 42.8 °F /  6 °C 38.9 °F /  3.8 °C 30.20 in /  1022.6 hPa Calm     86 % 0.00 in /  0 mm
00:17 42.7 °F /  5.9 °C 38.8 °F /  3.8 °C 30.19 in /  1022.2 hPa Calm     86 % 0.00 in /  0 mm
00:21 42.5 °F /  5.8 °C 38.6 °F /  3.7 °C 30.19 in /  1022.2 hPa Calm     86 % 0.00 in /  0 mm
00:26 42.1 °F /  5.6 °C 38.2 °F /  3.4 °C 30.20 in /  1022.6 hPa Calm     86 % 0.00 in /  0 mm
00:27 42.0 °F /  5.6 °C 38.1 °F /  3.4 °C 30.20 in /  1022.6 hPa Calm     86 % 0.00 in /  0 mm
00:28 41.8 °F /  5.4 °C 37.9 °F /  3.3 °C 30.20 in /  1022.6 hPa Calm     86 % 0.00 in /  0 mm
00:33 41.3 °F /  5.2 °C 37.7 °F /  3.2 °C 30.19 in /  1022.2 hPa Calm     87 % 0.00 in /  0 mm
00:35 41.2 °F /  5.1 °C 37.6 °F /  3.1 °C 30.19 in /  1022.2 hPa Calm     87 % 0.00 in /  0 mm
00:38 41.0 °F /  5 °C 37.7 °F /  3.2 °C 30.19 in /  1022.2 hPa Calm     88 % 0.00 in /  0 mm
00:41 41.0 °F /  5 °C 38.0 °F /  3.3 °C 30.20 in /  1022.6 hPa Calm     89 % 0.00 in /  0 mm
00:46 40.9 °F /  4.9 °C 37.9 °F /  3.3 °C 30.20 in /  1022.6 hPa Calm     89 % 0.00 in /  0 mm
00:48 40.8 °F /  4.9 °C 37.8 °F /  3.2 °C 30.20 in /  1022.6 hPa Calm     89 % 0.00 in /  0 mm
00:49 40.8 °F /  4.9 °C 37.8 °F /  3.2 °C 30.20 in /  1022.6 hPa Calm     89 % 0.00 in /  0 mm
00:54 40.7 °F /  4.8 °C 37.7 °F /  3.2 °C 30.20 in /  1022.6 hPa Calm     89 % 0.00 in /  0 mm
00:58 40.7 °F /  4.8 °C 38.0 °F /  3.3 °C 30.20 in /  1022.6 hPa Calm     90 % 0.00 in /  0 mm
00:59 40.7 °F /  4.8 °C 38.0 °F /  3.3 °C 30.20 in /  1022.6 hPa Calm     90 % 0.00 in /  0 mm
01:04 40.7 °F /  4.8 °C 38.0 °F /  3.3 °C 30.20 in /  1022.6 hPa Calm     90 % 0.00 in /  0 mm
01:05 40.7 °F /  4.8 °C 38.0 °F /  3.3 °C 30.20 in /  1022.6 hPa Calm     90 % 0.00 in /  0 mm
01:06 40.8 °F /  4.9 °C 38.1 °F /  3.4 °C 30.20 in /  1022.6 hPa Calm     90 % 0.00 in /  0 mm
01:07 40.8 °F /  4.9 °C 38.1 °F /  3.4 °C 30.20 in /  1022.6 hPa Calm     90 % 0.00 in /  0 mm
01:11 40.9 °F /  4.9 °C 38.2 °F /  3.4 °C 30.20 in /  1022.6 hPa Calm     90 % 0.00 in /  0 mm
01:16 40.9 °F /  4.9 °C 37.9 °F /  3.3 °C 30.21 in /  1022.9 hPa Calm     89 % 0.00 in /  0 mm
01:17 40.9 °F /  4.9 °C 38.2 °F /  3.4 °C 30.21 in /  1022.9 hPa Calm     90 % 0.00 in /  0 mm
01:19 40.9 °F /  4.9 °C 38.2 °F /  3.4 °C 30.21 in /  1022.9 hPa Calm     90 % 0.00 in /  0 mm
01:24 40.9 °F /  4.9 °C 37.9 °F /  3.3 °C 30.21 in /  1022.9 hPa Calm     89 % 0.00 in /  0 mm
01:27 40.8 °F /  4.9 °C 37.8 °F /  3.2 °C 30.21 in /  1022.9 hPa Calm     89 % 0.00 in /  0 mm
01:32 40.8 °F /  4.9 °C 38.1 °F /  3.4 °C 30.21 in /  1022.9 hPa Calm     90 % 0.00 in /  0 mm
01:35 40.9 °F /  4.9 °C 38.2 °F /  3.4 °C 30.21 in /  1022.9 hPa Calm     90 % 0.00 in /  0 mm
01:36 41.0 °F /  5 °C 38.3 °F /  3.5 °C 30.21 in /  1022.9 hPa Calm     90 % 0.00 in /  0 mm
01:41 41.1 °F /  5.1 °C 38.4 °F /  3.6 °C 30.22 in /  1023.2 hPa Calm     90 % 0.00 in /  0 mm
01:43 41.2 °F /  5.1 °C 38.5 °F /  3.6 °C 30.21 in /  1022.9 hPa Calm     90 % 0.00 in /  0 mm
01:44 41.2 °F /  5.1 °C 38.5 °F /  3.6 °C 30.21 in /  1022.9 hPa Calm     90 % 0.00 in /  0 mm
01:49 41.3 °F /  5.2 °C 38.6 °F /  3.7 °C 30.22 in /  1023.2 hPa Calm     90 % 0.00 in /  0 mm
01:54 41.6 °F /  5.3 °C 38.6 °F /  3.7 °C 30.22 in /  1023.2 hPa Calm     89 % 0.00 in /  0 mm
01:56 41.8 °F /  5.4 °C 38.8 °F /  3.8 °C 30.22 in /  1023.2 hPa Calm     89 % 0.00 in /  0 mm
01:58 41.8 °F /  5.4 °C 38.8 °F /  3.8 °C 30.22 in /  1023.2 hPa Calm     89 % 0.00 in /  0 mm
02:02 41.9 °F /  5.5 °C 38.6 °F /  3.7 °C 30.23 in /  1023.6 hPa Calm     88 % 0.00 in /  0 mm
02:04 41.9 °F /  5.5 °C 38.6 °F /  3.7 °C 30.22 in /  1023.2 hPa Calm     88 % 0.00 in /  0 mm
02:07 41.9 °F /  5.5 °C 38.6 °F /  3.7 °C 30.22 in /  1023.2 hPa Calm     88 % 0.00 in /  0 mm
02:12 41.8 °F /  5.4 °C 38.5 °F /  3.6 °C 30.22 in /  1023.2 hPa Calm     88 % 0.00 in /  0 mm
02:13 41.8 °F /  5.4 °C 38.5 °F /  3.6 °C 30.22 in /  1023.2 hPa Calm     88 % 0.00 in /  0 mm
02:18 41.7 °F /  5.4 °C 38.4 °F /  3.6 °C 30.23 in /  1023.6 hPa Calm     88 % 0.00 in /  0 mm
02:20 41.7 °F /  5.4 °C 38.4 °F /  3.6 °C 30.23 in /  1023.6 hPa Calm     88 % 0.00 in /  0 mm
02:23 41.7 °F /  5.4 °C 38.7 °F /  3.7 °C 30.23 in /  1023.6 hPa Calm     89 % 0.00 in /  0 mm
02:27 41.9 °F /  5.5 °C 38.9 °F /  3.8 °C 30.23 in /  1023.6 hPa Calm     89 % 0.00 in /  0 mm
02:29 42.1 °F /  5.6 °C 39.1 °F /  3.9 °C 30.23 in /  1023.6 hPa Calm     89 % 0.00 in /  0 mm
02:34 42.4 °F /  5.8 °C 39.1 °F /  3.9 °C 30.23 in /  1023.6 hPa Calm     88 % 0.00 in /  0 mm
02:39 42.3 °F /  5.7 °C 38.7 °F /  3.7 °C 30.23 in /  1023.6 hPa Calm     87 % 0.00 in /  0 mm
02:40 42.3 °F /  5.7 °C 38.7 °F /  3.7 °C 30.23 in /  1023.6 hPa Calm     87 % 0.00 in /  0 mm
02:45 42.2 °F /  5.7 °C 38.6 °F /  3.7 °C 30.23 in /  1023.6 hPa Calm     87 % 0.00 in /  0 mm
02:46 42.2 °F /  5.7 °C 38.6 °F /  3.7 °C 30.23 in /  1023.6 hPa Calm     87 % 0.00 in /  0 mm
02:50 42.1 °F /  5.6 °C 38.8 °F /  3.8 °C 30.23 in /  1023.6 hPa Calm     88 % 0.00 in /  0 mm
02:51 42.0 °F /  5.6 °C 38.7 °F /  3.7 °C 30.23 in /  1023.6 hPa Calm     88 % 0.00 in /  0 mm
02:56 42.0 °F /  5.6 °C 38.7 °F /  3.7 °C 30.23 in /  1023.6 hPa Calm     88 % 0.00 in /  0 mm
02:58 42.0 °F /  5.6 °C 38.7 °F /  3.7 °C 30.23 in /  1023.6 hPa Calm     88 % 0.00 in /  0 mm
03:00 42.0 °F /  5.6 °C 38.7 °F /  3.7 °C 30.23 in /  1023.6 hPa Calm     88 % 0.00 in /  0 mm
03:05 42.0 °F /  5.6 °C 38.7 °F /  3.7 °C 30.23 in /  1023.6 hPa Calm     88 % 0.00 in /  0 mm
03:10 41.9 °F /  5.5 °C 38.6 °F /  3.7 °C 30.23 in /  1023.6 hPa Calm     88 % 0.00 in /  0 mm
03:15 41.7 °F /  5.4 °C 38.4 °F /  3.6 °C 30.23 in /  1023.6 hPa Calm     88 % 0.00 in /  0 mm
03:17 41.7 °F /  5.4 °C 38.4 °F /  3.6 °C 30.23 in /  1023.6 hPa Calm     88 % 0.00 in /  0 mm
03:19 41.7 °F /  5.4 °C 38.4 °F /  3.6 °C 30.23 in /  1023.6 hPa Calm     88 % 0.00 in /  0 mm
03:24 41.6 °F /  5.3 °C 38.6 °F /  3.7 °C 30.22 in /  1023.2 hPa Calm     89 % 0.00 in /  0 mm
03:29 41.9 °F /  5.5 °C 38.9 °F /  3.8 °C 30.22 in /  1023.2 hPa Calm     89 % 0.00 in /  0 mm
03:33 42.0 °F /  5.6 °C 39.0 °F /  3.9 °C 30.22 in /  1023.2 hPa Calm     89 % 0.00 in /  0 mm
03:36 42.2 °F /  5.7 °C 39.2 °F /  4 °C 30.22 in /  1023.2 hPa Calm     89 % 0.00 in /  0 mm
03:41 42.5 °F /  5.8 °C 39.5 °F /  4.2 °C 30.22 in /  1023.2 hPa Calm     89 % 0.00 in /  0 mm
03:44 42.6 °F /  5.9 °C 39.3 °F /  4.1 °C 30.22 in /  1023.2 hPa Calm     88 % 0.00 in /  0 mm
03:49 42.6 °F /  5.9 °C 39.3 °F /  4.1 °C 30.22 in /  1023.2 hPa Calm     88 % 0.00 in /  0 mm
03:51 42.7 °F /  5.9 °C 39.4 °F /  4.1 °C 30.21 in /  1022.9 hPa Calm     88 % 0.00 in /  0 mm
03:55 42.9 °F /  6.1 °C 39.6 °F /  4.2 °C 30.21 in /  1022.9 hPa Calm     88 % 0.00 in /  0 mm
03:57 43.0 °F /  6.1 °C 39.7 °F /  4.3 °C 30.21 in /  1022.9 hPa Calm     88 % 0.00 in /  0 mm
04:02 43.2 °F /  6.2 °C 39.6 °F /  4.2 °C 30.21 in /  1022.9 hPa ESE 1.2 mph /  1.9 km/h   87 % 0.00 in /  0 mm
04:03 43.2 °F /  6.2 °C 39.6 °F /  4.2 °C 30.21 in /  1022.9 hPa Calm     87 % 0.00 in /  0 mm
04:08 43.4 °F /  6.3 °C 39.5 °F /  4.2 °C 30.21 in /  1022.9 hPa Calm     86 % 0.00 in /  0 mm
04:11 43.5 °F /  6.4 °C 39.6 °F /  4.2 °C 30.21 in /  1022.9 hPa Calm     86 % 0.00 in /  0 mm
04:16 43.6 °F /  6.4 °C 39.7 °F /  4.3 °C 30.21 in /  1022.9 hPa Calm     86 % 0.00 in /  0 mm
04:17 43.5 °F /  6.4 °C 39.6 °F /  4.2 °C 30.21 in /  1022.9 hPa Calm     86 % 0.00 in /  0 mm
04:18 43.6 °F /  6.4 °C 39.7 °F /  4.3 °C 30.21 in /  1022.9 hPa ESE 1.2 mph /  1.9 km/h 1.2 mph /  1.9 km/h 86 % 0.00 in /  0 mm
04:23 43.5 °F /  6.4 °C 39.6 °F /  4.2 °C 30.21 in /  1022.9 hPa Calm     86 % 0.00 in /  0 mm
04:25 43.5 °F /  6.4 °C 39.6 °F /  4.2 °C 30.21 in /  1022.9 hPa Calm     86 % 0.00 in /  0 mm
04:27 43.5 °F /  6.4 °C 39.6 °F /  4.2 °C 30.21 in /  1022.9 hPa Calm     86 % 0.00 in /  0 mm
04:32 43.5 °F /  6.4 °C 39.6 °F /  4.2 °C 30.21 in /  1022.9 hPa Calm     86 % 0.00 in /  0 mm
04:34 43.5 °F /  6.4 °C 39.6 °F /  4.2 °C 30.21 in /  1022.9 hPa Calm     86 % 0.00 in /  0 mm
04:36 43.3 °F /  6.3 °C 39.4 °F /  4.1 °C 30.22 in /  1023.2 hPa Calm     86 % 0.00 in /  0 mm
04:39 43.2 °F /  6.2 °C 39.3 °F /  4.1 °C 30.22 in /  1023.2 hPa Calm     86 % 0.00 in /  0 mm
04:43 43.0 °F /  6.1 °C 39.1 °F /  3.9 °C 30.22 in /  1023.2 hPa Calm     86 % 0.00 in /  0 mm
04:48 42.8 °F /  6 °C 39.2 °F /  4 °C 30.22 in /  1023.2 hPa Calm     87 % 0.00 in /  0 mm
04:49 42.9 °F /  6.1 °C 39.3 °F /  4.1 °C 30.22 in /  1023.2 hPa Calm     87 % 0.00 in /  0 mm
04:54 42.9 °F /  6.1 °C 39.3 °F /  4.1 °C 30.22 in /  1023.2 hPa Calm     87 % 0.00 in /  0 mm
04:55 42.9 °F /  6.1 °C 39.3 °F /  4.1 °C 30.22 in /  1023.2 hPa Calm     87 % 0.00 in /  0 mm
05:00 43.0 °F /  6.1 °C 39.4 °F /  4.1 °C 30.22 in /  1023.2 hPa ESE 1.2 mph /  1.9 km/h   87 % 0.00 in /  0 mm
05:02 43.1 °F /  6.2 °C 39.5 °F /  4.2 °C 30.22 in /  1023.2 hPa Calm     87 % 0.00 in /  0 mm
05:07 43.2 °F /  6.2 °C 39.3 °F /  4.1 °C 30.22 in /  1023.2 hPa Calm     86 % 0.00 in /  0 mm
05:08 43.2 °F /  6.2 °C 39.3 °F /  4.1 °C 30.22 in /  1023.2 hPa Calm     86 % 0.00 in /  0 mm
05:13 43.3 °F /  6.3 °C 39.4 °F /  4.1 °C 30.22 in /  1023.2 hPa Calm     86 % 0.00 in /  0 mm
05:15 43.2 °F /  6.2 °C 39.3 °F /  4.1 °C 30.22 in /  1023.2 hPa Calm     86 % 0.00 in /  0 mm
05:20 43.3 °F /  6.3 °C 39.4 °F /  4.1 °C 30.22 in /  1023.2 hPa Calm     86 % 0.00 in /  0 mm
05:21 43.3 °F /  6.3 °C 39.4 °F /  4.1 °C 30.22 in /  1023.2 hPa Calm     86 % 0.00 in /  0 mm
05:26 43.2 °F /  6.2 °C 39.3 °F /  4.1 °C 30.22 in /  1023.2 hPa Calm     86 % 0.00 in /  0 mm
05:31 43.1 °F /  6.2 °C 39.2 °F /  4 °C 30.22 in /  1023.2 hPa ESE 1.2 mph /  1.9 km/h   86 % 0.00 in /  0 mm
05:32 43.1 °F /  6.2 °C 39.2 °F /  4 °C 30.22 in /  1023.2 hPa Calm     86 % 0.00 in /  0 mm
05:37 43.2 °F /  6.2 °C 39.3 °F /  4.1 °C 30.22 in /  1023.2 hPa Calm     86 % 0.00 in /  0 mm
05:42 43.2 °F /  6.2 °C 39.3 °F /  4.1 °C 30.22 in /  1023.2 hPa Calm     86 % 0.00 in /  0 mm
05:47 43.1 °F /  6.2 °C 39.2 °F /  4 °C 30.22 in /  1023.2 hPa Calm     86 % 0.00 in /  0 mm
05:49 43.1 °F /  6.2 °C 39.2 °F /  4 °C 30.22 in /  1023.2 hPa Calm     86 % 0.00 in /  0 mm
05:54 43.0 °F /  6.1 °C 39.4 °F /  4.1 °C 30.23 in /  1023.6 hPa Calm     87 % 0.00 in /  0 mm
05:55 43.0 °F /  6.1 °C 39.4 °F /  4.1 °C 30.22 in /  1023.2 hPa Calm     87 % 0.00 in /  0 mm
06:00 42.6 °F /  5.9 °C 39.0 °F /  3.9 °C 30.22 in /  1023.2 hPa Calm     87 % 0.00 in /  0 mm
06:01 42.6 °F /  5.9 °C 39.0 °F /  3.9 °C 30.22 in /  1023.2 hPa Calm     87 % 0.00 in /  0 mm
06:06 42.4 °F /  5.8 °C 39.1 °F /  3.9 °C 30.22 in /  1023.2 hPa Calm     88 % 0.00 in /  0 mm
06:10 42.3 °F /  5.7 °C 39.0 °F /  3.9 °C 30.23 in /  1023.6 hPa Calm     88 % 0.00 in /  0 mm
06:12 42.3 °F /  5.7 °C 39.0 °F /  3.9 °C 30.22 in /  1023.2 hPa Calm     88 % 0.00 in /  0 mm
06:16 42.2 °F /  5.7 °C 39.2 °F /  4 °C 30.22 in /  1023.2 hPa Calm     89 % 0.00 in /  0 mm
06:18 42.2 °F /  5.7 °C 39.2 °F /  4 °C 30.22 in /  1023.2 hPa Calm     89 % 0.00 in /  0 mm
06:23 41.9 °F /  5.5 °C 38.9 °F /  3.8 °C 30.22 in /  1023.2 hPa ESE 1.2 mph /  1.9 km/h   89 % 0.00 in /  0 mm
06:24 41.8 °F /  5.4 °C 38.8 °F /  3.8 °C 30.22 in /  1023.2 hPa Calm     89 % 0.00 in /  0 mm
06:29 41.5 °F /  5.3 °C 38.5 °F /  3.6 °C 30.22 in /  1023.2 hPa ESE 2.3 mph /  3.7 km/h 2.3 mph /  3.7 km/h 89 % 0.00 in /  0 mm
06:34 41.2 °F /  5.1 °C 38.5 °F /  3.6 °C 30.23 in /  1023.6 hPa ESE 1.2 mph /  1.9 km/h   90 % 0.00 in /  0 mm
06:35 41.2 °F /  5.1 °C 38.5 °F /  3.6 °C 30.23 in /  1023.6 hPa ESE 1.2 mph /  1.9 km/h   90 % 0.00 in /  0 mm
06:40 40.9 °F /  4.9 °C 38.2 °F /  3.4 °C 30.23 in /  1023.6 hPa Calm     90 % 0.00 in /  0 mm
06:43 40.8 °F /  4.9 °C 38.1 °F /  3.4 °C 30.23 in /  1023.6 hPa Calm     90 % 0.00 in /  0 mm
06:48 40.6 °F /  4.8 °C 37.9 °F /  3.3 °C 30.23 in /  1023.6 hPa Calm     90 % 0.00 in /  0 mm
06:49 40.6 °F /  4.8 °C 37.9 °F /  3.3 °C 30.23 in /  1023.6 hPa Calm     90 % 0.00 in /  0 mm
06:51 40.6 °F /  4.8 °C 37.9 °F /  3.3 °C 30.23 in /  1023.6 hPa Calm     90 % 0.00 in /  0 mm
06:55 40.5 °F /  4.7 °C 38.1 °F /  3.4 °C 30.23 in /  1023.6 hPa Calm     91 % 0.00 in /  0 mm
06:57 40.5 °F /  4.7 °C 38.1 °F /  3.4 °C 30.23 in /  1023.6 hPa Calm     91 % 0.00 in /  0 mm
07:00 40.4 °F /  4.7 °C 38.0 °F /  3.3 °C 30.24 in /  1023.9 hPa Calm     91 % 0.00 in /  0 mm
07:03 40.4 °F /  4.7 °C 38.0 °F /  3.3 °C 30.23 in /  1023.6 hPa Calm     91 % 0.00 in /  0 mm
07:08 40.5 °F /  4.7 °C 38.1 °F /  3.4 °C 30.23 in /  1023.6 hPa ESE 1.0 mph /  1.6 km/h 1.0 mph /  1.6 km/h 91 % 0.00 in /  0 mm
07:09 40.5 °F /  4.7 °C 38.1 °F /  3.4 °C 30.24 in /  1023.9 hPa ESE 1.2 mph /  1.9 km/h 1.2 mph /  1.9 km/h 91 % 0.00 in /  0 mm
07:14 40.7 °F /  4.8 °C 38.3 °F /  3.5 °C 30.23 in /  1023.6 hPa Calm     91 % 0.00 in /  0 mm
07:19 40.7 °F /  4.8 °C 38.3 °F /  3.5 °C 30.24 in /  1023.9 hPa Calm     91 % 0.00 in /  0 mm
07:20 40.7 °F /  4.8 °C 38.3 °F /  3.5 °C 30.24 in /  1023.9 hPa Calm     91 % 0.00 in /  0 mm
07:23 40.8 °F /  4.9 °C 38.4 °F /  3.6 °C 30.24 in /  1023.9 hPa Calm     91 % 0.00 in /  0 mm
07:25 40.8 °F /  4.9 °C 38.4 °F /  3.6 °C 30.24 in /  1023.9 hPa Calm     91 % 0.00 in /  0 mm
07:30 40.9 °F /  4.9 °C 38.5 °F /  3.6 °C 30.24 in /  1023.9 hPa Calm     91 % 0.00 in /  0 mm
07:33 40.9 °F /  4.9 °C 38.5 °F /  3.6 °C 30.24 in /  1023.9 hPa Calm     91 % 0.00 in /  0 mm
07:38 41.0 °F /  5 °C 38.6 °F /  3.7 °C 30.24 in /  1023.9 hPa Calm     91 % 0.00 in /  0 mm
07:41 41.1 °F /  5.1 °C 38.7 °F /  3.7 °C 30.24 in /  1023.9 hPa Calm     91 % 0.00 in /  0 mm
07:46 41.3 °F /  5.2 °C 38.6 °F /  3.7 °C 30.24 in /  1023.9 hPa Calm     90 % 0.00 in /  0 mm
07:47 41.3 °F /  5.2 °C 38.6 °F /  3.7 °C 30.24 in /  1023.9 hPa Calm     90 % 0.00 in /  0 mm
07:52 41.5 °F /  5.3 °C 38.8 °F /  3.8 °C 30.25 in /  1024.3 hPa Calm     90 % 0.00 in /  0 mm
07:54 41.6 °F /  5.3 °C 38.9 °F /  3.8 °C 30.25 in /  1024.3 hPa Calm     90 % 0.00 in /  0 mm
07:59 41.9 °F /  5.5 °C 39.2 °F /  4 °C 30.25 in /  1024.3 hPa Calm     90 % 0.00 in /  0 mm
08:00 42.0 °F /  5.6 °C 39.3 °F /  4.1 °C 30.25 in /  1024.3 hPa Calm     90 % 0.00 in /  0 mm
08:02 42.2 °F /  5.7 °C 39.5 °F /  4.2 °C 30.25 in /  1024.3 hPa Calm     90 % 0.00 in /  0 mm
08:05 42.5 °F /  5.8 °C 39.8 °F /  4.3 °C 30.25 in /  1024.3 hPa Calm     90 % 0.00 in /  0 mm
08:10 43.2 °F /  6.2 °C 40.2 °F /  4.6 °C 30.25 in /  1024.3 hPa Calm     89 % 0.00 in /  0 mm
08:11 43.3 °F /  6.3 °C 40.3 °F /  4.6 °C 30.25 in /  1024.3 hPa Calm     89 % 0.00 in /  0 mm
08:16 44.5 °F /  6.9 °C 41.5 °F /  5.3 °C 30.25 in /  1024.3 hPa Calm     89 % 0.00 in /  0 mm
08:19 45.1 °F /  7.3 °C 41.2 °F /  5.1 °C 30.25 in /  1024.3 hPa Calm     86 % 0.00 in /  0 mm
08:21 45.2 °F /  7.3 °C 41.0 °F /  5 °C 30.25 in /  1024.3 hPa Calm     85 % 0.00 in /  0 mm
08:26 45.5 °F /  7.5 °C 40.6 °F /  4.8 °C 30.25 in /  1024.3 hPa Calm     83 % 0.00 in /  0 mm
08:31 45.8 °F /  7.7 °C 40.9 °F /  4.9 °C 30.25 in /  1024.3 hPa Calm     83 % 0.00 in /  0 mm
08:32 45.8 °F /  7.7 °C 40.9 °F /  4.9 °C 30.25 in /  1024.3 hPa Calm     83 % 0.00 in /  0 mm
08:37 46.0 °F /  7.8 °C 41.1 °F /  5.1 °C 30.25 in /  1024.3 hPa Calm     83 % 0.00 in /  0 mm
08:39 46.1 °F /  7.8 °C 41.2 °F /  5.1 °C 30.26 in /  1024.6 hPa Calm     83 % 0.00 in /  0 mm
08:44 46.1 °F /  7.8 °C 40.9 °F /  4.9 °C 30.25 in /  1024.3 hPa Calm     82 % 0.00 in /  0 mm
08:45 46.1 °F /  7.8 °C 40.9 °F /  4.9 °C 30.25 in /  1024.3 hPa Calm     82 % 0.00 in /  0 mm
08:48 46.2 °F /  7.9 °C 41.0 °F /  5 °C 30.25 in /  1024.3 hPa Calm     82 % 0.00 in /  0 mm
08:52 46.2 °F /  7.9 °C 41.3 °F /  5.2 °C 30.26 in /  1024.6 hPa Calm     83 % 0.00 in /  0 mm
08:57 46.6 °F /  8.1 °C 41.4 °F /  5.2 °C 30.26 in /  1024.6 hPa Calm     82 % 0.00 in /  0 mm
08:59 46.9 °F /  8.3 °C 41.7 °F /  5.4 °C 30.26 in /  1024.6 hPa Calm     82 % 0.00 in /  0 mm
09:04 47.7 °F /  8.7 °C 41.8 °F /  5.4 °C 30.26 in /  1024.6 hPa Calm     80 % 0.00 in /  0 mm
09:07 48.3 °F /  9.1 °C 41.8 °F /  5.4 °C 30.26 in /  1024.6 hPa Calm     78 % 0.00 in /  0 mm
09:10 48.7 °F /  9.3 °C 41.8 °F /  5.4 °C 30.26 in /  1024.6 hPa Calm     77 % 0.00 in /  0 mm
09:20 49.7 °F /  9.8 °C 41.4 °F /  5.2 °C 30.27 in /  1024.9 hPa East 1.2 mph /  1.9 km/h   73 % 0.00 in /  0 mm
09:21 49.7 °F /  9.8 °C 41.4 °F /  5.2 °C 30.27 in /  1024.9 hPa East 1.2 mph /  1.9 km/h   73 % 0.00 in /  0 mm
09:26 50.6 °F /  10.3 °C 42.3 °F /  5.7 °C 30.27 in /  1024.9 hPa ESE 1.2 mph /  1.9 km/h   73 % 0.00 in /  0 mm
09:27 50.8 °F /  10.4 °C 42.1 °F /  5.6 °C 30.27 in /  1024.9 hPa Calm     72 % 0.00 in /  0 mm
09:28 50.9 °F /  10.5 °C 42.2 °F /  5.7 °C 30.27 in /  1024.9 hPa Calm     72 % 0.00 in /  0 mm
09:33 51.0 °F /  10.6 °C 41.9 °F /  5.5 °C 30.28 in /  1025.3 hPa Calm     71 % 0.00 in /  0 mm
09:39 51.0 °F /  10.6 °C 41.6 °F /  5.3 °C 30.28 in /  1025.3 hPa Calm     70 % 0.00 in /  0 mm
09:40 51.1 °F /  10.6 °C 41.7 °F /  5.4 °C 30.28 in /  1025.3 hPa Calm     70 % 0.00 in /  0 mm
09:45 51.5 °F /  10.8 °C 42.0 °F /  5.6 °C 30.28 in /  1025.3 hPa Calm     70 % 0.00 in /  0 mm
09:47 51.6 °F /  10.9 °C 42.1 °F /  5.6 °C 30.28 in /  1025.3 hPa Calm     70 % 0.00 in /  0 mm
09:52 51.8 °F /  11 °C 41.9 °F /  5.5 °C 30.28 in /  1025.3 hPa Calm     69 % 0.00 in /  0 mm
09:53 51.8 °F /  11 °C 41.6 °F /  5.3 °C 30.28 in /  1025.3 hPa Calm     68 % 0.00 in /  0 mm
09:56 51.7 °F /  10.9 °C 41.5 °F /  5.3 °C 30.28 in /  1025.3 hPa Calm     68 % 0.00 in /  0 mm
10:00 51.7 °F /  10.9 °C 41.5 °F /  5.3 °C 30.28 in /  1025.3 hPa Calm     68 % 0.00 in /  0 mm
10:02 51.8 °F /  11 °C 41.9 °F /  5.5 °C 30.28 in /  1025.3 hPa Calm     69 % 0.00 in /  0 mm
10:05 52.1 °F /  11.2 °C 42.2 °F /  5.7 °C 30.28 in /  1025.3 hPa Calm     69 % 0.00 in /  0 mm
10:10 52.8 °F /  11.6 °C 42.5 °F /  5.8 °C 30.28 in /  1025.3 hPa Calm     68 % 0.00 in /  0 mm
10:11 52.8 °F /  11.6 °C 42.5 °F /  5.8 °C 30.28 in /  1025.3 hPa Calm     68 % 0.00 in /  0 mm
10:13 53.1 °F /  11.7 °C 42.4 °F /  5.8 °C 30.28 in /  1025.3 hPa Calm     67 % 0.00 in /  0 mm
10:16 53.2 °F /  11.8 °C 42.1 °F /  5.6 °C 30.28 in /  1025.3 hPa Calm     66 % 0.00 in /  0 mm
10:21 53.4 °F /  11.9 °C 41.9 °F /  5.5 °C 30.28 in /  1025.3 hPa Calm     65 % 0.00 in /  0 mm
10:26 53.2 °F /  11.8 °C 41.7 °F /  5.4 °C 30.27 in /  1024.9 hPa Calm     65 % 0.00 in /  0 mm
10:27 53.2 °F /  11.8 °C 41.7 °F /  5.4 °C 30.27 in /  1024.9 hPa Calm     65 % 0.00 in /  0 mm
10:32 53.4 °F /  11.9 °C 42.3 °F /  5.7 °C 30.27 in /  1024.9 hPa Calm     66 % 0.00 in /  0 mm
10:37 53.7 °F /  12.1 °C 42.6 °F /  5.9 °C 30.27 in /  1024.9 hPa Calm     66 % 0.00 in /  0 mm
10:39 54.2 °F /  12.3 °C 42.7 °F /  5.9 °C 30.27 in /  1024.9 hPa Calm     65 % 0.00 in /  0 mm
10:41 54.3 °F /  12.4 °C 42.4 °F /  5.8 °C 30.27 in /  1024.9 hPa WNW 1.2 mph /  1.9 km/h 1.2 mph /  1.9 km/h 64 % 0.00 in /  0 mm
10:45 54.4 °F /  12.4 °C 42.5 °F /  5.8 °C 30.27 in /  1024.9 hPa NW 1.2 mph /  1.9 km/h 1.2 mph /  1.9 km/h 64 % 0.00 in /  0 mm
10:48 54.5 °F /  12.5 °C 42.2 °F /  5.7 °C 30.27 in /  1024.9 hPa West 1.2 mph /  1.9 km/h 1.2 mph /  1.9 km/h 63 % 0.00 in /  0 mm
10:53 54.7 °F /  12.6 °C 43.2 °F /  6.2 °C 30.27 in /  1024.9 hPa Calm     65 % 0.00 in /  0 mm
10:54 54.9 °F /  12.7 °C 42.9 °F /  6.1 °C 30.27 in /  1024.9 hPa SSW 1.2 mph /  1.9 km/h   64 % 0.00 in /  0 mm
10:58 55.5 °F /  13.1 °C 43.5 °F /  6.4 °C 30.27 in /  1024.9 hPa Calm     64 % 0.00 in /  0 mm
11:03 56.2 °F /  13.4 °C 43.3 °F /  6.3 °C 30.27 in /  1024.9 hPa SE 2.0 mph /  3.2 km/h 2.0 mph /  3.2 km/h 62 % 0.00 in /  0 mm
11:08 56.8 °F /  13.8 °C 43.1 °F /  6.2 °C 30.26 in /  1024.6 hPa South 1.2 mph /  1.9 km/h   60 % 0.00 in /  0 mm
11:11 57.1 °F /  13.9 °C 43.3 °F /  6.3 °C 30.26 in /  1024.6 hPa SE 1.2 mph /  1.9 km/h   60 % 0.00 in /  0 mm
11:13 57.1 °F /  13.9 °C 42.5 °F /  5.8 °C 30.26 in /  1024.6 hPa ESE 1.0 mph /  1.6 km/h 1.0 mph /  1.6 km/h 58 % 0.00 in /  0 mm
11:16 56.8 °F /  13.8 °C 42.2 °F /  5.7 °C 30.26 in /  1024.6 hPa NW 1.2 mph /  1.9 km/h   58 % 0.00 in /  0 mm
11:21 56.7 °F /  13.7 °C 42.5 °F /  5.8 °C 30.26 in /  1024.6 hPa Calm     59 % 0.00 in /  0 mm
11:26 57.0 °F /  13.9 °C 41.9 °F /  5.5 °C 30.26 in /  1024.6 hPa Calm     57 % 0.00 in /  0 mm
11:31 57.1 °F /  13.9 °C 42.0 °F /  5.6 °C 30.26 in /  1024.6 hPa NW 2.3 mph /  3.7 km/h 2.3 mph /  3.7 km/h 57 % 0.00 in /  0 mm
11:32 57.1 °F /  13.9 °C 42.0 °F /  5.6 °C 30.26 in /  1024.6 hPa NW 1.2 mph /  1.9 km/h 1.2 mph /  1.9 km/h 57 % 0.00 in /  0 mm
11:37 57.2 °F /  14 °C 41.6 °F /  5.3 °C 30.25 in /  1024.3 hPa West 1.2 mph /  1.9 km/h 1.2 mph /  1.9 km/h 56 % 0.00 in /  0 mm
11:40 57.1 °F /  13.9 °C 41.5 °F /  5.3 °C 30.25 in /  1024.3 hPa WNW 1.2 mph /  1.9 km/h   56 % 0.00 in /  0 mm
11:45 57.4 °F /  14.1 °C 41.8 °F /  5.4 °C 30.25 in /  1024.3 hPa WNW 1.2 mph /  1.9 km/h 1.2 mph /  1.9 km/h 56 % 0.00 in /  0 mm
11:47 57.6 °F /  14.2 °C 42.9 °F /  6.1 °C 30.24 in /  1023.9 hPa Calm     58 % 0.00 in /  0 mm
11:52 57.9 °F /  14.4 °C 41.3 °F /  5.2 °C 30.24 in /  1023.9 hPa NW 2.3 mph /  3.7 km/h 2.3 mph /  3.7 km/h 54 % 0.00 in /  0 mm
11:57 58.0 °F /  14.4 °C 41.4 °F /  5.2 °C 30.24 in /  1023.9 hPa North 1.2 mph /  1.9 km/h   54 % 0.00 in /  0 mm
11:59 58.2 °F /  14.6 °C 41.1 °F /  5.1 °C 30.24 in /  1023.9 hPa ENE 1.2 mph /  1.9 km/h   53 % 0.00 in /  0 mm
12:03 58.5 °F /  14.7 °C 41.9 °F /  5.5 °C 30.23 in /  1023.6 hPa East 1.0 mph /  1.6 km/h 1.0 mph /  1.6 km/h 54 % 0.00 in /  0 mm
12:07 59.1 °F /  15.1 °C 42.0 °F /  5.6 °C 30.23 in /  1023.6 hPa Calm     53 % 0.00 in /  0 mm
12:09 59.3 °F /  15.2 °C 41.7 °F /  5.4 °C 30.23 in /  1023.6 hPa ENE 1.2 mph /  1.9 km/h 1.2 mph /  1.9 km/h 52 % 0.00 in /  0 mm
12:14 59.5 °F /  15.3 °C 41.9 °F /  5.5 °C 30.22 in /  1023.2 hPa Calm     52 % 0.00 in /  0 mm
12:16 59.6 °F /  15.3 °C 42.4 °F /  5.8 °C 30.22 in /  1023.2 hPa Calm     53 % 0.00 in /  0 mm
12:17 59.7 °F /  15.4 °C 42.5 °F /  5.8 °C 30.22 in /  1023.2 hPa Calm     53 % 0.00 in /  0 mm
12:21 59.9 °F /  15.5 °C 41.7 °F /  5.4 °C 30.22 in /  1023.2 hPa NW 1.2 mph /  1.9 km/h   51 % 0.00 in /  0 mm
12:23 59.8 °F /  15.4 °C 41.6 °F /  5.3 °C 30.22 in /  1023.2 hPa West 1.2 mph /  1.9 km/h 1.2 mph /  1.9 km/h 51 % 0.00 in /  0 mm
12:28 59.5 °F /  15.3 °C 41.3 °F /  5.2 °C 30.22 in /  1023.2 hPa WNW 1.2 mph /  1.9 km/h 1.2 mph /  1.9 km/h 51 % 0.00 in /  0 mm
12:29 59.5 °F /  15.3 °C 41.3 °F /  5.2 °C 30.22 in /  1023.2 hPa WNW 1.2 mph /  1.9 km/h 1.2 mph /  1.9 km/h 51 % 0.00 in /  0 mm
12:34 59.7 °F /  15.4 °C 41.5 °F /  5.3 °C 30.22 in /  1023.2 hPa NW 1.2 mph /  1.9 km/h   51 % 0.00 in /  0 mm
12:35 59.7 °F /  15.4 °C 41.0 °F /  5 °C 30.21 in /  1022.9 hPa WNW 1.2 mph /  1.9 km/h 1.2 mph /  1.9 km/h 50 % 0.00 in /  0 mm
12:40 59.8 °F /  15.4 °C 41.1 °F /  5.1 °C 30.21 in /  1022.9 hPa WSW 1.2 mph /  1.9 km/h   50 % 0.00 in /  0 mm
12:41 59.9 °F /  15.5 °C 41.2 °F /  5.1 °C 30.21 in /  1022.9 hPa NNW 2.0 mph /  3.2 km/h 2.0 mph /  3.2 km/h 50 % 0.00 in /  0 mm
12:44 60.0 °F /  15.6 °C 40.8 °F /  4.9 °C 30.21 in /  1022.9 hPa WSW 2.3 mph /  3.7 km/h 2.3 mph /  3.7 km/h 49 % 0.00 in /  0 mm
12:49 60.3 °F /  15.7 °C 41.0 °F /  5 °C 30.21 in /  1022.9 hPa WNW 1.2 mph /  1.9 km/h 1.2 mph /  1.9 km/h 49 % 0.00 in /  0 mm
12:52 60.5 °F /  15.8 °C 41.2 °F /  5.1 °C 30.21 in /  1022.9 hPa Calm     49 % 0.00 in /  0 mm
12:54 60.6 °F /  15.9 °C 40.8 °F /  4.9 °C 30.20 in /  1022.6 hPa NW 1.2 mph /  1.9 km/h   48 % 0.00 in /  0 mm
12:59 61.0 °F /  16.1 °C 40.6 °F /  4.8 °C 30.20 in /  1022.6 hPa SE 1.2 mph /  1.9 km/h 1.2 mph /  1.9 km/h 47 % 0.00 in /  0 mm
13:04 61.1 °F /  16.2 °C 40.1 °F /  4.5 °C 30.20 in /  1022.6 hPa NNW 1.2 mph /  1.9 km/h 1.2 mph /  1.9 km/h 46 % 0.00 in /  0 mm
13:05 61.1 °F /  16.2 °C 40.7 °F /  4.8 °C 30.20 in /  1022.6 hPa Calm     47 % 0.00 in /  0 mm
13:10 61.4 °F /  16.3 °C 39.9 °F /  4.4 °C 30.20 in /  1022.6 hPa ENE 1.2 mph /  1.9 km/h   45 % 0.00 in /  0 mm
13:12 61.4 °F /  16.3 °C 39.9 °F /  4.4 °C 30.20 in /  1022.6 hPa ENE 1.2 mph /  1.9 km/h   45 % 0.00 in /  0 mm
13:17 61.6 °F /  16.4 °C 41.2 °F /  5.1 °C 30.20 in /  1022.6 hPa Calm     47 % 0.00 in /  0 mm
13:18 61.7 °F /  16.5 °C 40.1 °F /  4.5 °C 30.20 in /  1022.6 hPa ENE 1.2 mph /  1.9 km/h   45 % 0.00 in /  0 mm
13:24 61.7 °F /  16.5 °C 40.1 °F /  4.5 °C 30.20 in /  1022.6 hPa West 1.2 mph /  1.9 km/h   45 % 0.00 in /  0 mm
13:25 61.6 °F /  16.4 °C 40.0 °F /  4.4 °C 30.20 in /  1022.6 hPa WNW 2.3 mph /  3.7 km/h 2.3 mph /  3.7 km/h 45 % 0.00 in /  0 mm
13:26 61.6 °F /  16.4 °C 39.5 °F /  4.2 °C 30.19 in /  1022.2 hPa WNW 1.2 mph /  1.9 km/h   44 % 0.00 in /  0 mm
13:31 61.8 °F /  16.6 °C 40.2 °F /  4.6 °C 30.19 in /  1022.2 hPa NW 1.2 mph /  1.9 km/h 1.2 mph /  1.9 km/h 45 % 0.00 in /  0 mm
13:36 62.0 °F /  16.7 °C 39.2 °F /  4 °C 30.19 in /  1022.2 hPa West 1.2 mph /  1.9 km/h 1.2 mph /  1.9 km/h 43 % 0.00 in /  0 mm
13:37 62.1 °F /  16.7 °C 39.9 °F /  4.4 °C 30.19 in /  1022.2 hPa West 1.2 mph /  1.9 km/h 1.2 mph /  1.9 km/h 44 % 0.00 in /  0 mm
13:38 62.1 °F /  16.7 °C 39.9 °F /  4.4 °C 30.19 in /  1022.2 hPa West 1.2 mph /  1.9 km/h   44 % 0.00 in /  0 mm
13:43 62.5 °F /  16.9 °C 39.1 °F /  3.9 °C 30.19 in /  1022.2 hPa Calm     42 % 0.00 in /  0 mm
13:45 62.5 °F /  16.9 °C 39.1 °F /  3.9 °C 30.19 in /  1022.2 hPa Calm     42 % 0.00 in /  0 mm
13:49 62.5 °F /  16.9 °C 39.1 °F /  3.9 °C 30.19 in /  1022.2 hPa WNW 1.2 mph /  1.9 km/h   42 % 0.00 in /  0 mm
13:50 62.5 °F /  16.9 °C 39.7 °F /  4.3 °C 30.19 in /  1022.2 hPa Calm     43 % 0.00 in /  0 mm
13:55 62.7 °F /  17.1 °C 39.9 °F /  4.4 °C 30.19 in /  1022.2 hPa NW 2.0 mph /  3.2 km/h 2.0 mph /  3.2 km/h 43 % 0.00 in /  0 mm
14:00 62.7 °F /  17.1 °C 39.3 °F /  4.1 °C 30.19 in /  1022.2 hPa Calm     42 % 0.00 in /  0 mm
14:02 62.7 °F /  17.1 °C 39.3 °F /  4.1 °C 30.19 in /  1022.2 hPa Calm     42 % 0.00 in /  0 mm
14:08 62.7 °F /  17.1 °C 38.6 °F /  3.7 °C 30.19 in /  1022.2 hPa NW 2.3 mph /  3.7 km/h 2.3 mph /  3.7 km/h 41 % 0.00 in /  0 mm
14:09 62.6 °F /  17 °C 38.6 °F /  3.7 °C 30.19 in /  1022.2 hPa West 1.2 mph /  1.9 km/h 1.2 mph /  1.9 km/h 41 % 0.00 in /  0 mm
14:14 62.6 °F /  17 °C 39.2 °F /  4 °C 30.19 in /  1022.2 hPa West 1.0 mph /  1.6 km/h 1.0 mph /  1.6 km/h 42 % 0.00 in /  0 mm
14:17 62.6 °F /  17 °C 39.2 °F /  4 °C 30.19 in /  1022.2 hPa North 3.5 mph /  5.6 km/h 3.5 mph /  5.6 km/h 42 % 0.00 in /  0 mm
14:19 62.7 °F /  17.1 °C 38.6 °F /  3.7 °C 30.19 in /  1022.2 hPa NW 1.2 mph /  1.9 km/h   41 % 0.00 in /  0 mm
14:24 62.7 °F /  17.1 °C 38.6 °F /  3.7 °C 30.19 in /  1022.2 hPa Calm     41 % 0.00 in /  0 mm
14:25 62.8 °F /  17.1 °C 39.4 °F /  4.1 °C 30.19 in /  1022.2 hPa WNW 2.0 mph /  3.2 km/h 2.0 mph /  3.2 km/h 42 % 0.00 in /  0 mm
14:26 62.7 °F /  17.1 °C 38.6 °F /  3.7 °C 30.19 in /  1022.2 hPa NW 2.3 mph /  3.7 km/h 2.3 mph /  3.7 km/h 41 % 0.00 in /  0 mm
14:31 62.7 °F /  17.1 °C 39.3 °F /  4.1 °C 30.19 in /  1022.2 hPa Calm     42 % 0.00 in /  0 mm
14:32 62.7 °F /  17.1 °C 38.6 °F /  3.7 °C 30.19 in /  1022.2 hPa West 1.2 mph /  1.9 km/h 1.2 mph /  1.9 km/h 41 % 0.00 in /  0 mm
14:36 62.6 °F /  17 °C 38.6 °F /  3.7 °C 30.19 in /  1022.2 hPa Calm     41 % 0.00 in /  0 mm
14:38 62.6 °F /  17 °C 38.6 °F /  3.7 °C 30.19 in /  1022.2 hPa Calm     41 % 0.00 in /  0 mm
14:43 62.6 °F /  17 °C 39.2 °F /  4 °C 30.20 in /  1022.6 hPa Calm     42 % 0.00 in /  0 mm
14:45 62.6 °F /  17 °C 38.6 °F /  3.7 °C 30.19 in /  1022.2 hPa NW 1.2 mph /  1.9 km/h 1.2 mph /  1.9 km/h 41 % 0.00 in /  0 mm
14:48 62.6 °F /  17 °C 37.9 °F /  3.3 °C 30.19 in /  1022.2 hPa Calm     40 % 0.00 in /  0 mm
14:53 62.5 °F /  16.9 °C 37.2 °F /  2.9 °C 30.19 in /  1022.2 hPa Calm     39 % 0.00 in /  0 mm
14:54 62.5 °F /  16.9 °C 37.2 °F /  2.9 °C 30.19 in /  1022.2 hPa Calm     39 % 0.00 in /  0 mm
14:59 62.4 °F /  16.9 °C 37.7 °F /  3.2 °C 30.19 in /  1022.2 hPa SE 1.2 mph /  1.9 km/h   40 % 0.00 in /  0 mm
15:02 62.5 °F /  16.9 °C 37.8 °F /  3.2 °C 30.19 in /  1022.2 hPa ESE 1.2 mph /  1.9 km/h   40 % 0.00 in /  0 mm
15:03 62.5 °F /  16.9 °C 37.8 °F /  3.2 °C 30.19 in /  1022.2 hPa Calm     40 % 0.00 in /  0 mm
15:08 62.4 °F /  16.9 °C 37.7 °F /  3.2 °C 30.19 in /  1022.2 hPa Calm     40 % 0.00 in /  0 mm
15:12 62.3 °F /  16.8 °C 37.7 °F /  3.2 °C 30.19 in /  1022.2 hPa SE 1.2 mph /  1.9 km/h   40 % 0.00 in /  0 mm
15:14 62.3 °F /  16.8 °C 38.3 °F /  3.5 °C 30.19 in /  1022.2 hPa Calm     41 % 0.00 in /  0 mm
15:17 62.2 °F /  16.8 °C 38.2 °F /  3.4 °C 30.19 in /  1022.2 hPa NW 1.2 mph /  1.9 km/h   41 % 0.00 in /  0 mm
15:21 62.2 °F /  16.8 °C 38.2 °F /  3.4 °C 30.19 in /  1022.2 hPa Calm     41 % 0.00 in /  0 mm
15:23 62.2 °F /  16.8 °C 38.8 °F /  3.8 °C 30.19 in /  1022.2 hPa Calm     42 % 0.00 in /  0 mm
15:27 62.1 °F /  16.7 °C 38.1 °F /  3.4 °C 30.19 in /  1022.2 hPa Calm     41 % 0.00 in /  0 mm
15:30 62.1 °F /  16.7 °C 38.7 °F /  3.7 °C 30.19 in /  1022.2 hPa Calm     42 % 0.00 in /  0 mm
15:32 62.0 °F /  16.7 °C 38.0 °F /  3.3 °C 30.19 in /  1022.2 hPa Calm     41 % 0.00 in /  0 mm
15:37 62.0 °F /  16.7 °C 38.6 °F /  3.7 °C 30.19 in /  1022.2 hPa Calm     42 % 0.00 in /  0 mm
15:39 62.0 °F /  16.7 °C 38.6 °F /  3.7 °C 30.19 in /  1022.2 hPa Calm     42 % 0.00 in /  0 mm
15:44 61.9 °F /  16.6 °C 38.5 °F /  3.6 °C 30.19 in /  1022.2 hPa WNW 1.2 mph /  1.9 km/h   42 % 0.00 in /  0 mm
15:45 61.8 °F /  16.6 °C 38.4 °F /  3.6 °C 30.19 in /  1022.2 hPa Calm     42 % 0.00 in /  0 mm
15:48 61.8 °F /  16.6 °C 38.4 °F /  3.6 °C 30.19 in /  1022.2 hPa Calm     42 % 0.00 in /  0 mm
15:53 61.7 °F /  16.5 °C 39.0 °F /  3.9 °C 30.19 in /  1022.2 hPa WNW 1.2 mph /  1.9 km/h 1.2 mph /  1.9 km/h 43 % 0.00 in /  0 mm
15:56 61.6 °F /  16.4 °C 39.5 °F /  4.2 °C 30.19 in /  1022.2 hPa Calm     44 % 0.00 in /  0 mm
16:01 61.4 °F /  16.3 °C 39.9 °F /  4.4 °C 30.19 in /  1022.2 hPa Calm     45 % 0.00 in /  0 mm
16:02 61.4 °F /  16.3 °C 39.9 °F /  4.4 °C 30.19 in /  1022.2 hPa Calm     45 % 0.00 in /  0 mm
16:03 61.4 °F /  16.3 °C 39.9 °F /  4.4 °C 30.19 in /  1022.2 hPa Calm     45 % 0.00 in /  0 mm
16:08 61.1 °F /  16.2 °C 40.7 °F /  4.8 °C 30.19 in /  1022.2 hPa Calm     47 % 0.00 in /  0 mm
16:11 60.9 °F /  16.1 °C 40.5 °F /  4.7 °C 30.19 in /  1022.2 hPa Calm     47 % 0.00 in /  0 mm
16:15 60.6 °F /  15.9 °C 40.2 °F /  4.6 °C 30.19 in /  1022.2 hPa Calm     47 % 0.00 in /  0 mm
16:16 60.6 °F /  15.9 °C 40.2 °F /  4.6 °C 30.19 in /  1022.2 hPa Calm     47 % 0.00 in /  0 mm
16:21 60.3 °F /  15.7 °C 40.5 °F /  4.7 °C 30.19 in /  1022.2 hPa Calm     48 % 0.00 in /  0 mm
16:23 60.2 °F /  15.7 °C 40.4 °F /  4.7 °C 30.19 in /  1022.2 hPa Calm     48 % 0.00 in /  0 mm
16:28 59.7 °F /  15.4 °C 41.0 °F /  5 °C 30.19 in /  1022.2 hPa Calm     50 % 0.00 in /  0 mm
16:34 59.2 °F /  15.1 °C 41.6 °F /  5.3 °C 30.20 in /  1022.6 hPa WNW 1.2 mph /  1.9 km/h 1.2 mph /  1.9 km/h 52 % 0.00 in /  0 mm
16:39 59.0 °F /  15 °C 41.4 °F /  5.2 °C 30.20 in /  1022.6 hPa Calm     52 % 0.00 in /  0 mm
16:40 58.9 °F /  14.9 °C 41.3 °F /  5.2 °C 30.20 in /  1022.6 hPa Calm     52 % 0.00 in /  0 mm
16:45 58.6 °F /  14.8 °C 41.5 °F /  5.3 °C 30.20 in /  1022.6 hPa Calm     53 % 0.00 in /  0 mm
16:46 58.4 °F /  14.7 °C 41.3 °F /  5.2 °C 30.20 in /  1022.6 hPa Calm     53 % 0.00 in /  0 mm
16:49 57.9 °F /  14.4 °C 41.3 °F /  5.2 °C 30.20 in /  1022.6 hPa Calm     54 % 0.00 in /  0 mm
16:52 57.5 °F /  14.2 °C 41.4 °F /  5.2 °C 30.20 in /  1022.6 hPa Calm     55 % 0.00 in /  0 mm
16:57 56.8 °F /  13.8 °C 41.3 °F /  5.2 °C 30.20 in /  1022.6 hPa Calm     56 % 0.00 in /  0 mm
16:58 56.6 °F /  13.7 °C 41.5 °F /  5.3 °C 30.20 in /  1022.6 hPa Calm     57 % 0.00 in /  0 mm
17:03 55.8 °F /  13.2 °C 41.7 °F /  5.4 °C 30.20 in /  1022.6 hPa Calm     59 % 0.00 in /  0 mm
17:09 55.0 °F /  12.8 °C 41.4 °F /  5.2 °C 30.21 in /  1022.9 hPa Calm     60 % 0.00 in /  0 mm
17:14 54.3 °F /  12.4 °C 41.1 °F /  5.1 °C 30.21 in /  1022.9 hPa Calm     61 % 0.00 in /  0 mm
17:19 53.6 °F /  12 °C 41.3 °F /  5.2 °C 30.21 in /  1022.9 hPa Calm     63 % 0.00 in /  0 mm
17:20 53.5 °F /  11.9 °C 41.2 °F /  5.1 °C 30.21 in /  1022.9 hPa Calm     63 % 0.00 in /  0 mm
17:25 52.8 °F /  11.6 °C 41.4 °F /  5.2 °C 30.21 in /  1022.9 hPa Calm     65 % 0.00 in /  0 mm
17:26 52.7 °F /  11.5 °C 41.7 °F /  5.4 °C 30.21 in /  1022.9 hPa Calm     66 % 0.00 in /  0 mm
17:31 52.1 °F /  11.2 °C 41.5 °F /  5.3 °C 30.21 in /  1022.9 hPa Calm     67 % 0.00 in /  0 mm
17:32 52.0 °F /  11.1 °C 41.4 °F /  5.2 °C 30.21 in /  1022.9 hPa Calm     67 % 0.00 in /  0 mm
17:37 51.4 °F /  10.8 °C 41.2 °F /  5.1 °C 30.21 in /  1022.9 hPa Calm     68 % 0.00 in /  0 mm
17:39 51.2 °F /  10.7 °C 41.4 °F /  5.2 °C 30.21 in /  1022.9 hPa Calm     69 % 0.00 in /  0 mm
17:43 50.8 °F /  10.4 °C 41.4 °F /  5.2 °C 30.22 in /  1023.2 hPa Calm     70 % 0.00 in /  0 mm
17:48 50.4 °F /  10.2 °C 41.3 °F /  5.2 °C 30.22 in /  1023.2 hPa Calm     71 % 0.00 in /  0 mm
17:51 50.1 °F /  10.1 °C 41.1 °F /  5.1 °C 30.22 in /  1023.2 hPa Calm     71 % 0.00 in /  0 mm
17:53 50.0 °F /  10 °C 41.3 °F /  5.2 °C 30.22 in /  1023.2 hPa Calm     72 % 0.00 in /  0 mm
17:57 49.8 °F /  9.9 °C 41.5 °F /  5.3 °C 30.22 in /  1023.2 hPa Calm     73 % 0.00 in /  0 mm
18:02 49.6 °F /  9.8 °C 41.3 °F /  5.2 °C 30.22 in /  1023.2 hPa Calm     73 % 0.00 in /  0 mm
18:04 49.3 °F /  9.6 °C 41.4 °F /  5.2 °C 30.22 in /  1023.2 hPa Calm     74 % 0.00 in /  0 mm
18:09 49.1 °F /  9.5 °C 41.2 °F /  5.1 °C 30.22 in /  1023.2 hPa Calm     74 % 0.00 in /  0 mm
18:12 49.0 °F /  9.4 °C 41.1 °F /  5.1 °C 30.22 in /  1023.2 hPa Calm     74 % 0.00 in /  0 mm
18:15 48.9 °F /  9.4 °C 41.0 °F /  5 °C 30.22 in /  1023.2 hPa Calm     74 % 0.00 in /  0 mm
18:18 48.7 °F /  9.3 °C 40.8 °F /  4.9 °C 30.22 in /  1023.2 hPa Calm     74 % 0.00 in /  0 mm
18:23 48.6 °F /  9.2 °C 41.0 °F /  5 °C 30.22 in /  1023.2 hPa Calm     75 % 0.00 in /  0 mm
18:28 48.7 °F /  9.3 °C 41.1 °F /  5.1 °C 30.23 in /  1023.6 hPa Calm     75 % 0.00 in /  0 mm
18:29 48.7 °F /  9.3 °C 41.1 °F /  5.1 °C 30.23 in /  1023.6 hPa Calm     75 % 0.00 in /  0 mm
18:34 48.6 °F /  9.2 °C 40.7 °F /  4.8 °C 30.23 in /  1023.6 hPa Calm     74 % 0.00 in /  0 mm
18:35 48.5 °F /  9.2 °C 40.6 °F /  4.8 °C 30.23 in /  1023.6 hPa Calm     74 % 0.00 in /  0 mm
18:40 48.7 °F /  9.3 °C 40.4 °F /  4.7 °C 30.22 in /  1023.2 hPa Calm     73 % 0.00 in /  0 mm
18:45 49.2 °F /  9.6 °C 40.2 °F /  4.6 °C 30.23 in /  1023.6 hPa Calm     71 % 0.00 in /  0 mm
18:47 49.2 °F /  9.6 °C 40.2 °F /  4.6 °C 30.23 in /  1023.6 hPa Calm     71 % 0.00 in /  0 mm
18:52 48.9 °F /  9.4 °C 39.9 °F /  4.4 °C 30.23 in /  1023.6 hPa Calm     71 % 0.00 in /  0 mm
18:53 48.9 °F /  9.4 °C 39.9 °F /  4.4 °C 30.23 in /  1023.6 hPa Calm     71 % 0.00 in /  0 mm
18:58 48.4 °F /  9.1 °C 39.4 °F /  4.1 °C 30.23 in /  1023.6 hPa Calm     71 % 0.00 in /  0 mm
19:03 48.0 °F /  8.9 °C 39.0 °F /  3.9 °C 30.23 in /  1023.6 hPa Calm     71 % 0.00 in /  0 mm
19:05 47.9 °F /  8.8 °C 39.3 °F /  4.1 °C 30.23 in /  1023.6 hPa Calm     72 % 0.00 in /  0 mm
19:08 47.6 °F /  8.7 °C 39.0 °F /  3.9 °C 30.24 in /  1023.9 hPa Calm     72 % 0.00 in /  0 mm
19:14 47.2 °F /  8.4 °C 39.0 °F /  3.9 °C 30.24 in /  1023.9 hPa Calm     73 % 0.00 in /  0 mm
19:19 46.9 °F /  8.3 °C 38.3 °F /  3.5 °C 30.24 in /  1023.9 hPa Calm     72 % 0.00 in /  0 mm
19:23 46.9 °F /  8.3 °C 38.7 °F /  3.7 °C 30.24 in /  1023.9 hPa Calm     73 % 0.00 in /  0 mm
19:24 46.9 °F /  8.3 °C 38.7 °F /  3.7 °C 30.24 in /  1023.9 hPa Calm     73 % 0.00 in /  0 mm
19:28 46.9 °F /  8.3 °C 38.7 °F /  3.7 °C 30.24 in /  1023.9 hPa Calm     73 % 0.00 in /  0 mm
19:29 46.9 °F /  8.3 °C 38.3 °F /  3.5 °C 30.24 in /  1023.9 hPa Calm     72 % 0.00 in /  0 mm
19:34 46.8 °F /  8.2 °C 38.2 °F /  3.4 °C 30.24 in /  1023.9 hPa Calm     72 % 0.00 in /  0 mm
19:35 46.8 °F /  8.2 °C 38.2 °F /  3.4 °C 30.24 in /  1023.9 hPa Calm     72 % 0.00 in /  0 mm
19:40 46.8 °F /  8.2 °C 38.6 °F /  3.7 °C 30.24 in /  1023.9 hPa Calm     73 % 0.00 in /  0 mm
19:45 46.5 °F /  8.1 °C 38.3 °F /  3.5 °C 30.24 in /  1023.9 hPa Calm     73 % 0.00 in /  0 mm
19:47 46.4 °F /  8 °C 38.2 °F /  3.4 °C 30.24 in /  1023.9 hPa Calm     73 % 0.00 in /  0 mm
19:52 46.5 °F /  8.1 °C 38.3 °F /  3.5 °C 30.24 in /  1023.9 hPa Calm     73 % 0.00 in /  0 mm
19:54 46.5 °F /  8.1 °C 38.3 °F /  3.5 °C 30.24 in /  1023.9 hPa Calm     73 % 0.00 in /  0 mm
19:57 46.3 °F /  7.9 °C 38.5 °F /  3.6 °C 30.24 in /  1023.9 hPa Calm     74 % 0.00 in /  0 mm
20:02 46.0 °F /  7.8 °C 38.5 °F /  3.6 °C 30.24 in /  1023.9 hPa Calm     75 % 0.00 in /  0 mm
20:03 46.0 °F /  7.8 °C 38.5 °F /  3.6 °C 30.24 in /  1023.9 hPa Calm     75 % 0.00 in /  0 mm
20:08 45.7 °F /  7.6 °C 38.2 °F /  3.4 °C 30.24 in /  1023.9 hPa Calm     75 % 0.00 in /  0 mm
20:13 45.6 °F /  7.6 °C 38.5 °F /  3.6 °C 30.24 in /  1023.9 hPa Calm     76 % 0.00 in /  0 mm
20:16 45.5 °F /  7.5 °C 38.4 °F /  3.6 °C 30.24 in /  1023.9 hPa Calm     76 % 0.00 in /  0 mm
20:18 45.5 °F /  7.5 °C 38.4 °F /  3.6 °C 30.24 in /  1023.9 hPa Calm     76 % 0.00 in /  0 mm
20:23 45.2 °F /  7.3 °C 38.1 °F /  3.4 °C 30.24 in /  1023.9 hPa Calm     76 % 0.00 in /  0 mm
20:24 45.1 °F /  7.3 °C 38.3 °F /  3.5 °C 30.24 in /  1023.9 hPa Calm     77 % 0.00 in /  0 mm
20:29 44.3 °F /  6.8 °C 37.9 °F /  3.3 °C 30.25 in /  1024.3 hPa Calm     78 % 0.00 in /  0 mm
20:30 44.2 °F /  6.8 °C 37.8 °F /  3.2 °C 30.25 in /  1024.3 hPa Calm     78 % 0.00 in /  0 mm
20:35 43.9 °F /  6.6 °C 37.8 °F /  3.2 °C 30.25 in /  1024.3 hPa Calm     79 % 0.00 in /  0 mm
20:36 43.9 °F /  6.6 °C 37.8 °F /  3.2 °C 30.25 in /  1024.3 hPa Calm     79 % 0.00 in /  0 mm
20:41 43.8 °F /  6.6 °C 38.0 °F /  3.3 °C 30.25 in /  1024.3 hPa Calm     80 % 0.00 in /  0 mm
20:44 43.9 °F /  6.6 °C 38.1 °F /  3.4 °C 30.26 in /  1024.6 hPa Calm     80 % 0.00 in /  0 mm
20:47 44.0 °F /  6.7 °C 38.2 °F /  3.4 °C 30.26 in /  1024.6 hPa Calm     80 % 0.00 in /  0 mm
20:50 44.2 °F /  6.8 °C 38.4 °F /  3.6 °C 30.26 in /  1024.6 hPa Calm     80 % 0.00 in /  0 mm
20:52 44.4 °F /  6.9 °C 38.6 °F /  3.7 °C 30.26 in /  1024.6 hPa Calm     80 % 0.00 in /  0 mm
20:57 44.6 °F /  7 °C 38.8 °F /  3.8 °C 30.27 in /  1024.9 hPa Calm   0.1 mph /  0.2 km/h 80 % 0.00 in /  0 mm
21:01 44.7 °F /  7.1 °C 38.6 °F /  3.7 °C 30.27 in /  1024.9 hPa NNW 1.2 mph /  1.9 km/h 1.2 mph /  1.9 km/h 79 % 0.00 in /  0 mm
21:02 44.8 °F /  7.1 °C 38.7 °F /  3.7 °C 30.27 in /  1024.9 hPa NNW 1.2 mph /  1.9 km/h 1.2 mph /  1.9 km/h 79 % 0.00 in /  0 mm
21:07 44.9 °F /  7.2 °C 38.5 °F /  3.6 °C 30.27 in /  1024.9 hPa Calm     78 % 0.00 in /  0 mm
21:09 44.9 °F /  7.2 °C 38.5 °F /  3.6 °C 30.27 in /  1024.9 hPa Calm     78 % 0.00 in /  0 mm
21:13 44.8 °F /  7.1 °C 38.4 °F /  3.6 °C 30.27 in /  1024.9 hPa Calm     78 % 0.00 in /  0 mm
21:18 44.9 °F /  7.2 °C 38.5 °F /  3.6 °C 30.28 in /  1025.3 hPa WNW 1.2 mph /  1.9 km/h   78 % 0.00 in /  0 mm
21:19 44.9 °F /  7.2 °C 38.5 °F /  3.6 °C 30.28 in /  1025.3 hPa Calm     78 % 0.00 in /  0 mm
21:24 45.0 °F /  7.2 °C 38.6 °F /  3.7 °C 30.28 in /  1025.3 hPa Calm     78 % 0.00 in /  0 mm
21:29 44.9 °F /  7.2 °C 38.5 °F /  3.6 °C 30.28 in /  1025.3 hPa Calm     78 % 0.00 in /  0 mm
21:35 44.8 °F /  7.1 °C 38.4 °F /  3.6 °C 30.27 in /  1024.9 hPa Calm     78 % 0.00 in /  0 mm
21:36 44.8 °F /  7.1 °C 38.0 °F /  3.3 °C 30.27 in /  1024.9 hPa Calm     77 % 0.00 in /  0 mm
21:39 44.8 °F /  7.1 °C 38.4 °F /  3.6 °C 30.27 in /  1024.9 hPa Calm     78 % 0.00 in /  0 mm
21:41 44.9 °F /  7.2 °C 38.1 °F /  3.4 °C 30.27 in /  1024.9 hPa Calm     77 % 0.00 in /  0 mm
21:46 44.9 °F /  7.2 °C 38.1 °F /  3.4 °C 30.27 in /  1024.9 hPa Calm     77 % 0.00 in /  0 mm
21:47 44.9 °F /  7.2 °C 38.1 °F /  3.4 °C 30.27 in /  1024.9 hPa Calm     77 % 0.00 in /  0 mm
21:52 44.6 °F /  7 °C 37.8 °F /  3.2 °C 30.27 in /  1024.9 hPa Calm     77 % 0.00 in /  0 mm
21:54 44.5 °F /  6.9 °C 38.1 °F /  3.4 °C 30.27 in /  1024.9 hPa Calm     78 % 0.00 in /  0 mm
21:59 44.3 °F /  6.8 °C 37.9 °F /  3.3 °C 30.26 in /  1024.6 hPa Calm     78 % 0.00 in /  0 mm
22:03 44.1 °F /  6.7 °C 37.7 °F /  3.2 °C 30.27 in /  1024.9 hPa Calm     78 % 0.00 in /  0 mm
22:08 43.8 °F /  6.6 °C 37.4 °F /  3 °C 30.26 in /  1024.6 hPa Calm     78 % 0.00 in /  0 mm
22:09 43.8 °F /  6.6 °C 37.7 °F /  3.2 °C 30.26 in /  1024.6 hPa Calm     79 % 0.00 in /  0 mm
22:14 43.8 °F /  6.6 °C 37.7 °F /  3.2 °C 30.26 in /  1024.6 hPa Calm     79 % 0.00 in /  0 mm
22:15 43.7 °F /  6.5 °C 37.6 °F /  3.1 °C 30.26 in /  1024.6 hPa Calm     79 % 0.00 in /  0 mm
22:20 43.1 °F /  6.2 °C 37.3 °F /  2.9 °C 30.26 in /  1024.6 hPa Calm     80 % 0.00 in /  0 mm
22:21 43.0 °F /  6.1 °C 37.6 °F /  3.1 °C 30.26 in /  1024.6 hPa Calm     81 % 0.00 in /  0 mm
22:22 42.9 °F /  6.1 °C 37.5 °F /  3.1 °C 30.26 in /  1024.6 hPa Calm     81 % 0.00 in /  0 mm
22:26 42.4 °F /  5.8 °C 37.3 °F /  2.9 °C 30.26 in /  1024.6 hPa Calm     82 % 0.00 in /  0 mm
22:31 42.1 °F /  5.6 °C 37.6 °F /  3.1 °C 30.26 in /  1024.6 hPa Calm     84 % 0.00 in /  0 mm
22:32 42.1 °F /  5.6 °C 37.6 °F /  3.1 °C 30.26 in /  1024.6 hPa Calm     84 % 0.00 in /  0 mm
22:37 41.9 °F /  5.5 °C 37.4 °F /  3 °C 30.26 in /  1024.6 hPa Calm     84 % 0.00 in /  0 mm
22:38 41.9 °F /  5.5 °C 37.4 °F /  3 °C 30.26 in /  1024.6 hPa Calm     84 % 0.00 in /  0 mm
22:39 41.8 °F /  5.4 °C 37.3 °F /  2.9 °C 30.26 in /  1024.6 hPa Calm     84 % 0.00 in /  0 mm
22:43 41.7 °F /  5.4 °C 37.2 °F /  2.9 °C 30.26 in /  1024.6 hPa Calm     84 % 0.00 in /  0 mm
22:48 41.4 °F /  5.2 °C 36.9 °F /  2.7 °C 30.26 in /  1024.6 hPa Calm     84 % 0.00 in /  0 mm
22:49 41.3 °F /  5.2 °C 36.8 °F /  2.7 °C 30.26 in /  1024.6 hPa Calm     84 % 0.00 in /  0 mm
22:54 41.3 °F /  5.2 °C 37.1 °F /  2.8 °C 30.26 in /  1024.6 hPa Calm     85 % 0.00 in /  0 mm
22:55 41.3 °F /  5.2 °C 37.1 °F /  2.8 °C 30.26 in /  1024.6 hPa Calm     85 % 0.00 in /  0 mm
23:00 41.3 °F /  5.2 °C 37.1 °F /  2.8 °C 30.27 in /  1024.9 hPa Calm     85 % 0.00 in /  0 mm
23:02 41.3 °F /  5.2 °C 36.8 °F /  2.7 °C 30.27 in /  1024.9 hPa Calm     84 % 0.00 in /  0 mm
23:06 41.3 °F /  5.2 °C 36.8 °F /  2.7 °C 30.27 in /  1024.9 hPa Calm     84 % 0.00 in /  0 mm
23:11 41.2 °F /  5.1 °C 37.0 °F /  2.8 °C 30.27 in /  1024.9 hPa Calm     85 % 0.00 in /  0 mm
23:13 41.3 °F /  5.2 °C 36.8 °F /  2.7 °C 30.27 in /  1024.9 hPa Calm     84 % 0.00 in /  0 mm
23:15 41.3 °F /  5.2 °C 36.8 °F /  2.7 °C 30.27 in /  1024.9 hPa Calm     84 % 0.00 in /  0 mm
23:19 41.4 °F /  5.2 °C 37.2 °F /  2.9 °C 30.27 in /  1024.9 hPa Calm     85 % 0.00 in /  0 mm
23:24 41.7 °F /  5.4 °C 37.2 °F /  2.9 °C 30.27 in /  1024.9 hPa Calm     84 % 0.00 in /  0 mm
23:29 41.8 °F /  5.4 °C 37.3 °F /  2.9 °C 30.27 in /  1024.9 hPa Calm     84 % 0.00 in /  0 mm
23:34 41.9 °F /  5.5 °C 37.1 °F /  2.8 °C 30.27 in /  1024.9 hPa Calm     83 % 0.00 in /  0 mm
23:36 41.9 °F /  5.5 °C 37.1 °F /  2.8 °C 30.27 in /  1024.9 hPa Calm     83 % 0.00 in /  0 mm
23:41 41.8 °F /  5.4 °C 37.0 °F /  2.8 °C 30.27 in /  1024.9 hPa WNW 1.2 mph /  1.9 km/h   83 % 0.00 in /  0 mm
23:42 41.8 °F /  5.4 °C 37.0 °F /  2.8 °C 30.27 in /  1024.9 hPa WNW 1.2 mph /  1.9 km/h   83 % 0.00 in /  0 mm
23:43 41.9 °F /  5.5 °C 37.1 °F /  2.8 °C 30.27 in /  1024.9 hPa WNW 1.2 mph /  1.9 km/h   83 % 0.00 in /  0 mm
23:48 42.1 °F /  5.6 °C 37.3 °F /  2.9 °C 30.27 in /  1024.9 hPa Calm     83 % 0.00 in /  0 mm
23:53 42.5 °F /  5.8 °C 37.4 °F /  3 °C 30.26 in /  1024.6 hPa WNW 1.2 mph /  1.9 km/h   82 % 0.00 in /  0 mm
23:55 42.6 °F /  5.9 °C 37.2 °F /  2.9 °C 30.27 in /  1024.9 hPa NW 1.2 mph /  1.9 km/h   81 % 0.00 in /  0 mm
23:59 42.8 °F /  6 °C 37.4 °F /  3 °C 30.26 in /  1024.6 hPa Calm     81 % 0.00 in /  0 mm
Park Place, Exeter, Tulare County, California, USA
Compliments of Weather Underground - 3.5 mb